Time;durP1;ratioP1;P1;durP2;ratioP2;P2;SDS_P1;SDS_P2;PMS_P1;PMS_P2;Temp;Humidity;BMP_temperature;BMP_pressure;BME280_temperature;BME280_humidity;BME280_pressure;Samples;Min_cycle;Max_cycle;Signal;HPM_P1;HPM_P2
2023/05/24 00:01:07;;;;;;;5.50;4.85;;;;;;;14.21;100.00;98117.63;5138641;28;20051;-57
2023/05/24 00:03:37;;;;;;;6.40;4.55;;;;;;;14.15;100.00;98099.22;5138532;28;20061;-61
2023/05/24 00:06:05;;;;;;;12.77;4.65;;;;;;;14.13;100.00;98091.38;5138438;27;20110;-55
2023/05/24 00:08:32;;;;;;;4.90;4.40;;;;;;;14.08;100.00;98092.59;5138313;28;20395;-56
2023/05/24 00:10:58;;;;;;;11.88;4.53;;;;;;;14.04;100.00;98080.84;5138382;28;20047;-57
2023/05/24 00:13:24;;;;;;;7.50;4.63;;;;;;;13.98;100.00;98077.00;5138118;28;20047;-57
2023/05/24 00:15:50;;;;;;;5.10;4.60;;;;;;;13.97;100.00;98071.91;5138192;28;20076;-59
2023/05/24 00:18:16;;;;;;;5.68;5.07;;;;;;;13.91;100.00;98066.06;5138209;28;20055;-61
2023/05/24 00:20:43;;;;;;;7.88;5.55;;;;;;;13.87;100.00;98057.84;5138126;28;20107;-54
2023/05/24 00:23:09;;;;;;;6.80;4.53;;;;;;;13.81;100.00;98061.47;5138066;28;20057;-53
2023/05/24 00:25:35;;;;;;;7.65;5.00;;;;;;;13.80;100.00;98057.94;5137954;28;20047;-54
2023/05/24 00:28:01;;;;;;;8.15;5.10;;;;;;;13.75;100.00;98052.13;5138158;27;20047;-57
2023/05/24 00:30:27;;;;;;;7.75;4.70;;;;;;;13.64;100.00;98055.00;5138143;28;20146;-54
2023/05/24 00:32:53;;;;;;;8.38;4.97;;;;;;;13.62;100.00;98060.13;5138131;28;20047;-57
2023/05/24 00:35:19;;;;;;;8.05;5.03;;;;;;;13.40;100.00;98054.88;5138079;27;20133;-60
2023/05/24 00:37:46;;;;;;;7.57;5.03;;;;;;;13.38;100.00;98050.97;5138039;27;20086;-53
2023/05/24 00:40:13;;;;;;;9.85;5.38;;;;;;;13.33;100.00;98054.19;5137729;28;20439;-59
2023/05/24 00:42:39;;;;;;;6.28;5.20;;;;;;;13.36;100.00;98059.66;5137998;28;20043;-60
2023/05/24 00:45:07;;;;;;;7.72;5.22;;;;;;;13.41;100.00;98052.91;5137817;28;20047;-55
2023/05/24 00:47:33;;;;;;;5.93;5.32;;;;;;;13.38;100.00;98048.22;5137563;28;20073;-51
2023/05/24 00:49:59;;;;;;;7.40;4.75;;;;;;;13.32;100.00;98047.13;5137735;28;20061;-59
2023/05/24 00:52:25;;;;;;;8.25;5.30;;;;;;;13.26;100.00;98055.06;5136901;27;20062;-51
2023/05/24 00:54:51;;;;;;;7.20;5.03;;;;;;;13.16;100.00;98053.13;5137582;28;20196;-55
2023/05/24 00:57:18;;;;;;;7.28;5.50;;;;;;;13.12;100.00;98061.44;5137491;28;20051;-59
2023/05/24 00:59:44;;;;;;;6.25;5.15;;;;;;;13.10;100.00;98063.84;5137697;28;20167;-54
2023/05/24 01:02:11;;;;;;;10.88;4.63;;;;;;;13.11;100.00;98078.38;5137636;28;20051;-54
2023/05/24 01:04:37;;;;;;;5.75;5.22;;;;;;;13.14;100.00;98078.31;5137696;28;20047;-56
2023/05/24 01:07:13;;;;;;;6.15;5.18;;;;;;;13.17;100.00;98068.47;5137315;27;20051;-51
2023/05/24 01:09:54;;;;;;;6.50;5.07;;;;;;;13.08;100.00;98082.72;5137425;28;20141;-53
2023/05/24 01:12:31;;;;;;;8.40;4.57;;;;;;;13.01;100.00;98088.28;5137436;28;20145;-58
2023/05/24 01:15:09;;;;;;;6.75;5.45;;;;;;;12.99;100.00;98089.88;5137744;28;20043;-58
2023/05/24 01:17:47;;;;;;;6.20;5.35;;;;;;;13.04;100.00;98094.94;5137469;28;20051;-55
2023/05/24 01:20:15;;;;;;;6.75;5.32;;;;;;;13.04;100.00;98097.69;5137199;28;20043;-55
2023/05/24 01:23:25;;;;;;;9.75;5.70;;;;;;;13.03;100.00;98090.63;5137204;28;20430;-54
2023/05/24 01:26:17;;;;;;;8.27;5.72;;;;;;;12.98;100.00;98085.56;5137233;28;20188;-60
2023/05/24 01:28:46;;;;;;;6.82;5.60;;;;;;;12.93;100.00;98098.56;5137312;28;20391;-58
2023/05/24 01:31:13;;;;;;;5.93;5.22;;;;;;;12.88;100.00;98107.25;5137316;28;20046;-59
2023/05/24 01:33:41;;;;;;;7.57;5.10;;;;;;;12.87;100.00;98116.69;5137271;28;20074;-51
2023/05/24 01:36:07;;;;;;;16.52;5.63;;;;;;;12.87;100.00;98116.69;5137142;27;20101;-56
2023/05/24 01:38:33;;;;;;;14.05;5.53;;;;;;;12.81;100.00;98128.53;5137149;28;20055;-52
2023/05/24 01:41:06;;;;;;;6.35;5.70;;;;;;;12.78;100.00;98138.38;5136984;28;20047;-56
2023/05/24 01:43:39;;;;;;;9.73;5.53;;;;;;;12.80;100.00;98147.00;5136940;28;20416;-56
2023/05/24 01:46:21;;;;;;;7.65;5.70;;;;;;;12.74;100.00;98154.13;5137201;28;20051;-52
2023/05/24 01:48:55;;;;;;;5.93;5.32;;;;;;;12.71;100.00;98163.19;5136846;28;20310;-58
2023/05/24 01:51:23;;;;;;;9.98;5.75;;;;;;;12.69;100.00;98160.84;5136873;28;20047;-58
2023/05/24 01:53:51;;;;;;;7.18;5.95;;;;;;;12.64;100.00;98177.75;5137036;28;20340;-52
2023/05/24 01:56:19;;;;;;;6.60;5.80;;;;;;;12.63;100.00;98176.19;5137011;28;20464;-58
2023/05/24 01:58:47;;;;;;;6.60;5.57;;;;;;;12.61;100.00;98186.81;5136762;28;20051;-59
2023/05/24 02:01:14;;;;;;;13.93;6.45;;;;;;;12.61;100.00;98194.28;5136802;28;20267;-61
2023/05/24 02:03:40;;;;;;;6.32;5.70;;;;;;;12.59;100.00;98188.38;5137284;27;20137;-60
2023/05/24 02:06:07;;;;;;;8.32;6.22;;;;;;;12.63;100.00;98206.44;5140567;27;20047;-57
2023/05/24 02:08:33;;;;;;;8.02;5.82;;;;;;;12.58;100.00;98206.06;5140190;27;20047;-55
2023/05/24 02:10:59;;;;;;;7.82;5.75;;;;;;;12.57;100.00;98216.28;5140199;28;20047;-61
2023/05/24 02:13:24;;;;;;;6.57;5.57;;;;;;;12.64;100.00;98227.25;5140264;28;20080;-60
2023/05/24 02:15:52;;;;;;;11.00;6.72;;;;;;;12.59;100.00;98227.66;5140221;28;20070;-60
2023/05/24 02:18:19;;;;;;;8.30;5.88;;;;;;;12.64;100.00;98230.00;5140362;28;20091;-57
2023/05/24 02:20:45;;;;;;;6.90;5.50;;;;;;;12.66;100.00;98211.16;5140484;28;20047;-60
2023/05/24 02:23:11;;;;;;;8.77;6.20;;;;;;;12.65;100.00;98228.81;5140269;28;20058;-57
2023/05/24 02:25:37;;;;;;;6.78;5.47;;;;;;;12.66;100.00;98222.16;5140115;28;20487;-52
2023/05/24 02:28:03;;;;;;;6.95;5.40;;;;;;;12.66;100.00;98227.66;5140005;28;20093;-54
2023/05/24 02:30:29;;;;;;;8.80;6.15;;;;;;;12.74;100.00;98239.38;5140000;28;20051;-57
2023/05/24 02:32:56;;;;;;;14.18;6.20;;;;;;;12.81;100.00;98216.56;5139974;28;20069;-59
2023/05/24 02:35:22;;;;;;;9.75;6.68;;;;;;;13.08;100.00;98203.78;5139755;27;20404;-58
2023/05/24 02:37:48;;;;;;;11.00;6.30;;;;;;;13.37;100.00;98154.03;5139869;28;20058;-55
2023/05/24 02:40:14;;;;;;;10.63;6.60;;;;;;;13.72;100.00;98111.56;5139807;28;20086;-58
2023/05/24 02:42:41;;;;;;;6.93;6.22;;;;;;;13.92;100.00;98081.41;5139668;28;20047;-59
2023/05/24 02:45:07;;;;;;;10.20;6.22;;;;;;;14.19;100.00;98055.84;5139558;28;20191;-60
2023/05/24 02:47:33;;;;;;;7.35;6.20;;;;;;;14.39;100.00;98053.19;5139783;28;20134;-58
2023/05/24 02:49:59;;;;;;;6.97;5.88;;;;;;;14.55;100.00;98045.88;5139570;28;20401;-60
2023/05/24 02:52:26;;;;;;;6.65;5.82;;;;;;;14.81;100.00;98052.53;5139555;28;20051;-59
2023/05/24 02:54:52;;;;;;;7.32;5.95;;;;;;;15.09;100.00;98060.72;5139611;28;20047;-60
2023/05/24 02:57:17;;;;;;;9.25;6.25;;;;;;;15.24;100.00;98090.44;5139500;28;20090;-59
2023/05/24 02:59:43;;;;;;;10.52;5.85;;;;;;;15.48;100.00;98101.44;5139323;28;20055;-56
2023/05/24 03:02:12;;;;;;;9.65;5.90;;;;;;;15.54;100.00;98132.88;5139324;28;20047;-52
2023/05/24 03:04:38;;;;;;;6.28;5.05;;;;;;;15.88;100.00;98162.28;5139313;28;20073;-58
2023/05/24 03:07:04;;;;;;;7.63;6.10;;;;;;;15.81;100.00;98154.13;5139267;27;20092;-60
2023/05/24 03:09:31;;;;;;;8.68;5.30;;;;;;;16.35;100.00;98175.94;5139213;28;20442;-55
2023/05/24 03:11:57;;;;;;;7.53;6.35;;;;;;;16.31;100.00;98191.81;5139197;28;20057;-53
2023/05/24 03:14:23;;;;;;;12.32;5.90;;;;;;;16.60;100.00;98230.75;5138990;27;20138;-55
2023/05/24 03:16:49;;;;;;;7.72;7.03;;;;;;;16.88;100.00;98254.28;5139351;28;20104;-52
2023/05/24 03:19:16;;;;;;;7.75;7.13;;;;;;;17.13;100.00;98295.25;5139334;28;20401;-60
2023/05/24 03:21:42;;;;;;;7.25;5.53;;;;;;;17.20;100.00;98327.56;5139025;28;20047;-60
2023/05/24 03:24:08;;;;;;;6.97;5.50;;;;;;;17.28;100.00;98340.03;5139029;28;20054;-56
2023/05/24 03:26:35;;;;;;;6.20;5.38;;;;;;;17.49;100.00;98375.53;5139050;28;20043;-52
2023/05/24 03:29:01;;;;;;;6.78;5.63;;;;;;;17.67;100.00;98396.56;5139020;28;20055;-54
2023/05/24 03:31:27;;;;;;;5.80;5.30;;;;;;;17.75;100.00;98404.25;5139049;28;20129;-53
2023/05/24 03:33:54;;;;;;;7.70;7.00;;;;;;;18.08;100.00;98432.03;5139125;28;20047;-57
2023/05/24 03:36:20;;;;;;;11.95;5.93;;;;;;;17.93;100.00;98406.66;5138830;27;20051;-56
2023/05/24 03:38:46;;;;;;;6.15;5.22;;;;;;;18.32;100.00;98441.72;5139118;28;20085;-50
2023/05/24 03:41:12;;;;;;;7.47;5.15;;;;;;;18.48;100.00;98443.72;5138740;28;20440;-54
2023/05/24 03:43:38;;;;;;;9.13;5.18;;;;;;;18.75;100.00;98465.66;5138669;28;20190;-58
2023/05/24 03:46:04;;;;;;;5.57;5.07;;;;;;;19.02;100.00;98518.09;5138910;28;20316;-56
2023/05/24 03:48:30;;;;;;;6.97;5.60;;;;;;;19.36;100.00;98535.44;5138515;28;20087;-57
2023/05/24 03:50:56;;;;;;;10.00;5.60;;;;;;;19.06;100.00;98551.38;5138796;28;20047;-56
2023/05/24 03:53:22;;;;;;;5.93;5.32;;;;;;;19.16;100.00;98541.97;5138767;28;20138;-55
2023/05/24 03:55:48;;;;;;;9.15;5.90;;;;;;;19.74;100.00;98597.56;5138634;28;20142;-52
2023/05/24 03:58:14;;;;;;;7.40;5.32;;;;;;;19.92;100.00;98618.50;5138767;28;20507;-50
2023/05/24 04:00:40;;;;;;;9.27;5.88;;;;;;;20.19;100.00;98641.19;5138385;28;20050;-52
2023/05/24 04:03:07;;;;;;;8.10;6.22;;;;;;;20.42;100.00;98672.72;5138478;28;20391;-50
2023/05/24 04:05:33;;;;;;;7.50;5.40;;;;;;;20.99;100.00;98682.13;5138313;27;20050;-54
2023/05/24 04:07:59;;;;;;;5.88;5.00;;;;;;;20.96;100.00;98630.09;5138257;28;20421;-57
2023/05/24 04:10:25;;;;;;;23.73;5.90;;;;;;;21.52;100.00;98673.25;5138187;28;20042;-55
2023/05/24 04:12:51;;;;;;;10.25;5.28;;;;;;;21.38;100.00;98703.16;5138278;28;20138;-50
2023/05/24 04:15:17;;;;;;;9.23;5.68;;;;;;;21.95;100.00;98711.56;5138530;28;20093;-54
2023/05/24 04:17:45;;;;;;;6.63;4.70;;;;;;;22.24;100.00;98725.31;5138283;28;20065;-58
2023/05/24 04:20:11;;;;;;;6.38;4.97;;;;;;;21.98;100.00;98716.25;5138270;28;20070;-59
2023/05/24 04:22:37;;;;;;;7.35;6.55;;;;;;;22.39;100.00;98744.34;5138176;28;20074;-57
2023/05/24 04:25:04;;;;;;;6.65;5.18;;;;;;;22.58;100.00;98753.63;5138190;28;20069;-56
2023/05/24 04:27:30;;;;;;;9.45;5.10;;;;;;;22.43;100.00;98739.41;5137080;27;20141;-55
2023/05/24 04:29:56;;;;;;;10.70;5.30;;;;;;;22.09;100.00;98739.00;5138005;28;20055;-53
2023/05/24 04:32:22;;;;;;;12.70;4.82;;;;;;;22.83;100.00;98767.44;5137938;28;20054;-54
2023/05/24 04:34:51;;;;;;;5.82;4.53;;;;;;;23.04;100.00;98765.84;5137878;28;20051;-59
2023/05/24 04:37:17;;;;;;;13.82;5.13;;;;;;;23.20;98.18;98792.78;5137745;27;20086;-51
2023/05/24 04:39:43;;;;;;;8.32;5.95;;;;;;;23.66;100.00;98798.53;5137740;27;20381;-58
2023/05/24 04:42:09;;;;;;;7.10;5.32;;;;;;;23.67;99.89;98803.66;5137407;28;20055;-60
2023/05/24 04:44:35;;;;;;;10.50;5.22;;;;;;;23.73;93.48;98819.88;5137832;27;20427;-52
2023/05/24 04:47:02;;;;;;;11.07;5.40;;;;;;;24.16;91.40;98818.88;5137843;28;20082;-52
2023/05/24 04:49:28;;;;;;;9.82;5.47;;;;;;;24.51;88.28;98821.38;5137493;28;20337;-58
2023/05/24 04:51:55;;;;;;;8.13;5.97;;;;;;;23.97;91.37;98820.09;5137685;28;20047;-56
2023/05/24 04:54:21;;;;;;;9.15;4.93;;;;;;;24.36;87.71;98829.63;5137439;28;20340;-53
2023/05/24 04:56:47;;;;;;;9.05;5.18;;;;;;;24.91;89.86;98817.56;5137444;28;20093;-59
2023/05/24 04:59:13;;;;;;;6.38;5.35;;;;;;;24.90;86.38;98830.81;5137370;28;20073;-53
2023/05/24 05:01:39;;;;;;;7.10;4.30;;;;;;;25.00;81.79;98842.78;5137412;28;20051;-56
2023/05/24 05:04:06;;;;;;;13.55;5.32;;;;;;;25.59;81.27;98840.41;5137406;28;20047;-59
2023/05/24 05:06:36;;;;;;;13.00;4.90;;;;;;;25.18;82.28;98842.75;5137227;27;20051;-58
2023/05/24 05:09:03;;;;;;;9.55;5.43;;;;;;;25.58;79.28;98847.28;5137170;28;20416;-54
2023/05/24 05:11:29;;;;;;;12.02;5.10;;;;;;;25.70;79.17;98845.53;5137070;28;20053;-54
2023/05/24 05:13:55;;;;;;;8.60;5.07;;;;;;;25.01;81.38;98852.75;5137051;28;20074;-54
2023/05/24 05:16:21;;;;;;;10.10;5.00;;;;;;;26.28;79.62;98847.81;5137015;28;20047;-54
2023/05/24 05:18:47;;;;;;;8.40;5.07;;;;;;;26.52;78.24;98853.44;5137334;28;20055;-50
2023/05/24 05:21:13;;;;;;;9.68;5.25;;;;;;;26.84;76.12;98861.44;5136882;28;20435;-53
2023/05/24 05:23:39;;;;;;;11.15;4.82;;;;;;;25.68;81.18;98851.59;5137112;28;20115;-50
2023/05/24 05:26:06;;;;;;;9.15;5.60;;;;;;;26.96;75.90;98872.41;5136840;28;20047;-59
2023/05/24 05:28:32;;;;;;;7.22;4.50;;;;;;;27.04;73.49;98869.19;5136748;28;20050;-57
2023/05/24 05:30:58;;;;;;;8.18;4.55;;;;;;;27.35;72.38;98874.34;5136779;28;20050;-56
2023/05/24 05:33:24;;;;;;;8.30;4.70;;;;;;;27.30;71.66;98875.06;5136794;28;20051;-59
2023/05/24 05:35:50;;;;;;;9.73;5.40;;;;;;;27.71;71.01;98878.75;5136642;27;20089;-56
2023/05/24 05:38:16;;;;;;;10.65;4.70;;;;;;;28.02;69.71;98877.44;5137995;27;20097;-55
2023/05/24 05:40:42;;;;;;;6.53;4.72;;;;;;;27.79;70.34;98876.34;5140284;28;20070;-52
2023/05/24 05:43:09;;;;;;;6.57;4.65;;;;;;;27.96;68.94;98885.81;5140470;27;20051;-61
2023/05/24 05:45:35;;;;;;;6.47;4.50;;;;;;;28.54;67.51;98886.84;5140248;28;20055;-53
2023/05/24 05:48:01;;;;;;;10.15;4.32;;;;;;;28.76;66.50;98889.16;5140178;28;20142;-59
2023/05/24 05:50:27;;;;;;;10.73;4.30;;;;;;;28.73;68.24;98884.50;5140269;28;20086;-60
2023/05/24 05:52:53;;;;;;;9.30;4.38;;;;;;;28.72;67.29;98887.78;5140377;28;20046;-59
2023/05/24 05:55:19;;;;;;;9.00;3.97;;;;;;;29.07;64.39;98893.34;5139955;28;20393;-61
2023/05/24 05:57:45;;;;;;;13.13;3.80;;;;;;;28.88;64.47;98890.03;5139715;27;20043;-55
2023/05/24 06:00:13;;;;;;;9.57;4.25;;;;;;;28.94;62.27;98890.88;5139828;28;20047;-55
2023/05/24 06:02:39;;;;;;;13.15;4.25;;;;;;;29.46;63.49;98893.69;5139703;27;20047;-58
2023/05/24 06:05:05;;;;;;;7.63;3.90;;;;;;;29.76;61.17;98893.41;5139720;27;20439;-59
2023/05/24 06:07:31;;;;;;;6.60;3.67;;;;;;;30.04;60.85;98887.94;5139818;28;20336;-53
2023/05/24 06:09:57;;;;;;;7.25;4.13;;;;;;;30.47;60.71;98902.81;5139720;27;20066;-62
2023/05/24 06:12:23;;;;;;;10.20;4.55;;;;;;;29.59;63.02;98898.13;5139736;28;20043;-60
2023/05/24 06:14:49;;;;;;;14.50;4.10;;;;;;;28.90;61.39;98895.19;5140094;28;20085;-57
2023/05/24 06:17:17;;;;;;;10.50;4.20;;;;;;;29.82;58.23;98899.09;5139958;28;20054;-57
2023/05/24 06:19:43;;;;;;;6.97;3.67;;;;;;;30.44;58.42;98903.81;5140047;28;20321;-61
2023/05/24 06:22:09;;;;;;;9.70;3.55;;;;;;;30.62;58.93;98908.28;5139828;28;20141;-58
2023/05/24 06:24:35;;;;;;;5.38;3.90;;;;;;;30.69;58.53;98910.63;5139899;28;20167;-58
2023/05/24 06:27:01;;;;;;;11.93;4.38;;;;;;;30.26;57.97;98904.28;5139770;28;20401;-60
2023/05/24 06:29:27;;;;;;;11.45;3.78;;;;;;;30.17;58.69;98910.09;5139433;27;20055;-61
2023/05/24 06:31:53;;;;;;;9.65;3.88;;;;;;;30.44;57.35;98917.19;5139611;28;20046;-56
2023/05/24 06:34:20;;;;;;;9.07;4.55;;;;;;;30.20;58.13;98915.53;5139524;28;20055;-57
2023/05/24 06:36:47;;;;;;;9.65;4.00;;;;;;;30.73;58.22;98907.53;5139577;27;20070;-54
2023/05/24 06:39:14;;;;;;;10.00;3.97;;;;;;;30.38;57.41;98910.75;5139287;28;20374;-55
2023/05/24 06:41:41;;;;;;;8.38;3.60;;;;;;;30.88;56.81;98910.94;5139293;28;20141;-57
2023/05/24 06:44:07;;;;;;;7.85;3.90;;;;;;;31.36;56.94;98912.09;5139585;28;20130;-56
2023/05/24 06:46:33;;;;;;;10.30;3.53;;;;;;;29.49;57.97;98908.81;5137376;28;20248;-62
2023/05/24 06:48:59;;;;;;;10.77;3.50;;;;;;;31.25;54.85;98914.88;5138455;27;20051;-56
2023/05/24 06:51:26;;;;;;;10.05;3.30;;;;;;;29.87;55.68;98916.09;5139239;28;20120;-61
2023/05/24 06:53:52;;;;;;;8.30;3.20;;;;;;;31.59;54.50;98915.66;5139818;28;20420;-63
2023/05/24 06:56:18;;;;;;;4.85;3.28;;;;;;;30.97;53.38;98912.00;5139544;28;20405;-57
2023/05/24 06:58:44;;;;;;;4.70;2.97;;;;;;;31.19;52.88;98917.72;5139080;28;20058;-52
2023/05/24 07:01:10;;;;;;;5.32;3.47;;;;;;;31.37;52.72;98913.63;5139299;28;20103;-58
2023/05/24 07:03:36;;;;;;;8.38;3.55;;;;;;;31.21;52.91;98914.34;5139186;28;20162;-56
2023/05/24 07:06:02;;;;;;;10.40;3.42;;;;;;;31.51;53.37;98915.41;5138967;27;20397;-58
2023/05/24 07:08:29;;;;;;;5.43;3.45;;;;;;;31.72;53.55;98915.16;5138900;28;20204;-58
2023/05/24 07:10:55;;;;;;;12.32;3.40;;;;;;;31.49;54.70;98914.38;5139204;28;20379;-61
2023/05/24 07:13:21;;;;;;;5.82;3.42;;;;;;;31.47;52.90;98914.16;5139017;27;20051;-57
2023/05/24 07:15:48;;;;;;;5.30;3.38;;;;;;;31.35;53.58;98910.53;5138956;28;20362;-60
2023/05/24 07:18:14;;;;;;;9.90;3.47;;;;;;;31.22;52.88;98913.81;5138735;28;20061;-58
2023/05/24 07:20:40;;;;;;;4.85;3.40;;;;;;;32.01;52.78;98914.63;5138877;28;20073;-57
2023/05/24 07:23:06;;;;;;;11.05;3.40;;;;;;;32.21;51.76;98910.69;5138887;28;20416;-53
2023/05/24 07:25:33;;;;;;;5.55;3.17;;;;;;;31.97;52.03;98916.94;5138886;28;20070;-62
2023/05/24 07:27:59;;;;;;;7.57;3.60;;;;;;;32.06;51.40;98911.00;5138650;28;20043;-61
2023/05/24 07:30:26;;;;;;;5.40;3.22;;;;;;;32.53;51.12;98916.03;5138533;28;20057;-59
2023/05/24 07:32:51;;;;;;;19.50;3.88;;;;;;;32.97;50.91;98922.81;5138600;28;20082;-61
2023/05/24 07:35:17;;;;;;;8.00;3.20;;;;;;;32.86;50.26;98911.50;5138348;27;20062;-57
2023/05/24 07:37:44;;;;;;;7.53;3.10;;;;;;;32.34;50.38;98913.75;5138313;28;20134;-58
2023/05/24 07:40:10;;;;;;;4.43;2.80;;;;;;;32.23;50.78;98922.31;5138282;28;20051;-59
2023/05/24 07:42:37;;;;;;;7.22;3.10;;;;;;;32.84;50.07;98919.75;5138557;28;20380;-58
2023/05/24 07:45:04;;;;;;;6.35;2.92;;;;;;;31.78;49.70;98918.75;5138338;28;20043;-55
2023/05/24 07:47:30;;;;;;;21.10;3.72;;;;;;;31.64;50.37;98921.34;5138166;28;20082;-60
2023/05/24 07:49:56;;;;;;;16.40;3.38;;;;;;;30.92;52.41;98922.81;5138092;28;20150;-59
2023/05/24 07:52:23;;;;;;;12.07;3.10;;;;;;;29.87;52.54;98918.91;5138216;28;20085;-61
2023/05/24 07:54:49;;;;;;;11.20;3.30;;;;;;;29.02;54.57;98919.44;5138346;28;20047;-60
2023/05/24 07:57:15;;;;;;;11.50;3.20;;;;;;;28.45;53.99;98926.44;5138063;28;20047;-56
2023/05/24 07:59:41;;;;;;;6.00;2.90;;;;;;;27.81;53.97;98924.50;5137933;28;20054;-56
2023/05/24 08:02:10;;;;;;;4.70;2.72;;;;;;;27.66;54.58;98922.47;5137973;27;20065;-56
2023/05/24 08:04:36;;;;;;;12.32;3.20;;;;;;;26.75;57.34;98916.47;5137876;28;20055;-61
2023/05/24 08:07:03;;;;;;;8.38;3.20;;;;;;;26.21;58.53;98912.78;5137859;27;20051;-61
2023/05/24 08:09:34;;;;;;;5.18;3.03;;;;;;;26.87;58.56;98917.50;5137679;28;20432;-60
2023/05/24 08:12:00;;;;;;;4.95;3.00;;;;;;;27.54;57.15;98915.09;5137934;28;20375;-60
2023/05/24 08:14:26;;;;;;;3.70;2.63;;;;;;;27.55;56.34;98913.06;5137797;28;20095;-61
2023/05/24 08:16:52;;;;;;;11.40;3.50;;;;;;;27.30;57.09;98926.47;5137783;28;20053;-57
2023/05/24 08:19:18;;;;;;;10.32;3.22;;;;;;;27.19;56.72;98920.63;5137846;28;20101;-62
2023/05/24 08:21:44;;;;;;;4.82;3.28;;;;;;;28.44;54.66;98922.09;5137867;27;20130;-62
2023/05/24 08:24:10;;;;;;;5.95;2.83;;;;;;;28.30;53.84;98923.69;5137585;28;20416;-54
2023/05/24 08:26:37;;;;;;;3.58;2.92;;;;;;;26.01;58.64;98921.03;5137679;28;20047;-59
2023/05/24 08:29:03;;;;;;;3.08;2.75;;;;;;;26.53;57.80;98924.50;5137553;28;20046;-60
2023/05/24 08:31:31;;;;;;;4.57;2.85;;;;;;;26.31;59.89;98921.19;5137412;28;20573;-56
2023/05/24 08:33:58;;;;;;;4.25;2.80;;;;;;;26.37;59.46;98922.06;5137712;27;20085;-61
2023/05/24 08:36:24;;;;;;;6.45;3.10;;;;;;;26.01;62.07;98916.19;5137421;27;20050;-59
2023/05/24 08:38:50;;;;;;;7.00;2.65;;;;;;;25.90;61.81;98913.13;5137348;27;20145;-58
2023/05/24 08:41:16;;;;;;;5.80;3.05;;;;;;;25.76;64.55;98917.41;5137675;28;20141;-56
2023/05/24 08:43:42;;;;;;;3.10;2.80;;;;;;;25.87;64.05;98910.50;5137447;28;20047;-53
2023/05/24 08:46:10;;;;;;;4.97;3.20;;;;;;;25.63;65.70;98911.22;5137617;28;20047;-62
2023/05/24 08:48:44;;;;;;;3.10;2.80;;;;;;;25.43;60.98;98911.75;5137363;28;20058;-60
2023/05/24 08:51:11;;;;;;;5.07;2.80;;;;;;;25.39;61.39;98911.13;5137538;28;20055;-60
2023/05/24 08:53:38;;;;;;;6.68;3.15;;;;;;;25.63;63.43;98908.41;5137410;27;20137;-60
2023/05/24 08:56:07;;;;;;;7.55;3.10;;;;;;;25.38;63.52;98901.16;5137454;28;20051;-60
2023/05/24 08:58:33;;;;;;;7.88;2.72;;;;;;;25.34;63.54;98914.56;5137259;28;20450;-59
2023/05/24 09:01:00;;;;;;;5.28;2.95;;;;;;;25.41;60.53;98916.28;5137187;27;20051;-62
2023/05/24 09:03:27;;;;;;;3.90;3.08;;;;;;;25.51;64.47;98907.34;5137471;28;20112;-56
2023/05/24 09:05:53;;;;;;;3.65;2.90;;;;;;;25.16;59.65;98918.22;5137402;27;20054;-54
2023/05/24 09:08:21;;;;;;;3.38;3.00;;;;;;;25.38;59.45;98908.78;5137077;28;20469;-62
2023/05/24 09:10:47;;;;;;;6.25;2.55;;;;;;;25.56;60.03;98908.75;5137317;28;20081;-56
2023/05/24 09:13:15;;;;;;;4.32;2.20;;;;;;;25.34;60.48;98912.53;5136663;27;20057;-58
2023/05/24 09:15:40;;;;;;;3.92;2.40;;;;;;;25.57;60.71;98911.06;5137223;28;20472;-55
2023/05/24 09:18:06;;;;;;;4.75;3.05;;;;;;;25.68;61.40;98912.59;5137316;28;20047;-61
2023/05/24 09:20:32;;;;;;;4.90;3.22;;;;;;;25.82;61.22;98923.16;5137403;28;20047;-61
2023/05/24 09:23:01;;;;;;;4.50;3.08;;;;;;;25.96;63.56;98919.66;5136998;28;20069;-58
2023/05/24 09:25:28;;;;;;;7.18;3.20;;;;;;;26.12;63.47;98917.69;5136802;28;20421;-59
2023/05/24 09:27:55;;;;;;;6.78;3.42;;;;;;;26.15;60.29;98923.13;5136950;27;20051;-60
2023/05/24 09:30:21;;;;;;;3.75;3.15;;;;;;;26.59;61.46;98918.97;5137019;28;20343;-60
2023/05/24 09:32:55;;;;;;;3.40;2.80;;;;;;;27.57;58.76;98928.22;5137207;27;20073;-55
2023/05/24 09:35:21;;;;;;;3.00;2.70;;;;;;;27.37;57.61;98926.09;5136960;27;20055;-60
2023/05/24 09:37:47;;;;;;;7.47;3.00;;;;;;;27.03;58.16;98926.75;5137029;27;20070;-51
2023/05/24 09:40:18;;;;;;;4.72;3.03;;;;;;;26.88;58.52;98924.66;5136814;28;20420;-55
2023/05/24 09:42:45;;;;;;;4.78;3.00;;;;;;;26.89;57.76;98931.06;5136764;28;20343;-58
2023/05/24 09:45:11;;;;;;;5.88;3.50;;;;;;;26.78;57.34;98919.59;5136686;28;20191;-53
2023/05/24 09:47:39;;;;;;;6.05;3.10;;;;;;;26.66;57.69;98925.00;5136760;28;20134;-56
2023/05/24 09:50:11;;;;;;;3.78;3.13;;;;;;;26.64;59.50;98926.75;5136734;28;20051;-55
2023/05/24 09:52:38;;;;;;;4.70;3.10;;;;;;;26.24;61.90;98922.31;5136898;28;20062;-58
2023/05/24 09:55:11;;;;;;;4.47;3.13;;;;;;;25.93;61.85;98925.47;5137078;27;20339;-58
2023/05/24 09:57:37;;;;;;;4.70;2.67;;;;;;;25.21;66.39;98914.75;5136942;28;20149;-56
2023/05/24 10:00:13;;;;;;;6.88;3.15;;;;;;;25.02;69.73;98911.16;5136701;27;20051;-55
2023/05/24 10:02:39;;;;;;;8.57;3.42;;;;;;;25.23;69.42;98917.09;5136607;28;20317;-62
2023/05/24 10:05:06;;;;;;;4.03;3.42;;;;;;;24.86;69.94;98917.91;5136577;27;20047;-53
2023/05/24 10:07:33;;;;;;;7.03;3.50;;;;;;;24.51;73.84;98902.63;5136594;28;20053;-53
2023/05/24 10:10:00;;;;;;;6.43;3.50;;;;;;;24.60;72.45;98911.06;5136470;28;20328;-60
2023/05/24 10:12:27;;;;;;;11.63;6.78;;;;;;;24.62;71.03;98916.94;5136319;28;20373;-53
2023/05/24 10:14:56;;;;;;;10.43;3.17;;;;;;;24.23;74.38;98916.59;5136178;28;20138;-59
2023/05/24 10:17:26;;;;;;;5.25;2.72;;;;;;;23.93;76.84;98916.19;5136377;27;20062;-60
2023/05/24 10:19:52;;;;;;;5.30;3.35;;;;;;;23.95;77.72;98912.94;5136573;28;20058;-53
2023/05/24 10:22:21;;;;;;;7.53;3.35;;;;;;;23.71;75.62;98919.06;5136089;28;20051;-61
2023/05/24 10:24:55;;;;;;;10.07;3.50;;;;;;;23.88;74.91;98928.00;5137227;27;20331;-59
2023/05/24 10:27:24;;;;;;;8.13;3.38;;;;;;;23.79;78.10;98925.19;5139686;28;20103;-62
2023/05/24 10:30:00;;;;;;;6.35;2.58;;;;;;;23.65;77.21;98920.88;5139468;28;20055;-58
2023/05/24 10:32:30;;;;;;;10.25;3.70;;;;;;;23.69;74.03;98927.16;5139738;27;20055;-62
2023/05/24 10:34:57;;;;;;;6.07;2.92;;;;;;;23.71;77.04;98929.47;5139544;28;20057;-55
2023/05/24 10:37:24;;;;;;;12.77;2.95;;;;;;;23.51;75.49;98926.25;5139513;27;20111;-57
2023/05/24 10:39:50;;;;;;;11.05;3.10;;;;;;;23.37;77.34;98922.78;5139887;28;20061;-65
2023/05/24 10:42:16;;;;;;;15.60;2.90;;;;;;;23.56;77.42;98926.44;5140176;28;20084;-54
2023/05/24 10:44:42;;;;;;;5.70;3.15;;;;;;;23.73;74.23;98935.41;5143333;28;20320;-53
2023/05/24 10:47:11;;;;;;;10.73;4.20;;;;;;;23.74;76.24;98925.00;5142700;28;20130;-61
2023/05/24 10:49:46;;;;;;;15.27;3.50;;;;;;;23.74;76.15;98922.19;5140353;28;20141;-54
2023/05/24 10:52:12;;;;;;;4.78;2.80;;;;;;;23.70;76.42;98920.31;5139482;28;20134;-60
2023/05/24 10:54:38;;;;;;;11.55;3.15;;;;;;;23.68;80.74;98914.38;5139722;28;20475;-55
2023/05/24 10:57:06;;;;;;;11.68;4.25;;;;;;;23.75;75.89;98927.31;5139519;28;20145;-63
2023/05/24 10:59:36;;;;;;;8.20;3.40;;;;;;;23.61;78.51;98922.25;5139603;28;20432;-62
2023/05/24 11:02:04;;;;;;;5.63;3.15;;;;;;;23.69;80.24;98915.97;5139319;28;20043;-56
2023/05/24 11:04:32;;;;;;;6.22;2.85;;;;;;;23.63;78.75;98920.56;5139220;28;20055;-55
2023/05/24 11:07:02;;;;;;;10.10;4.05;;;;;;;23.83;75.74;98923.00;5138950;27;20137;-56
2023/05/24 11:09:28;;;;;;;4.10;2.40;;;;;;;23.82;73.74;98926.25;5139261;28;20089;-64
2023/05/24 11:11:59;;;;;;;6.95;2.88;;;;;;;23.88;74.00;98925.19;5139526;28;20073;-60
2023/05/24 11:14:28;;;;;;;3.70;2.97;;;;;;;23.83;75.88;98925.81;5139267;28;20051;-63
2023/05/24 11:16:54;;;;;;;7.50;3.45;;;;;;;24.02;74.23;98926.63;5139334;28;20103;-63
2023/05/24 11:19:22;;;;;;;3.90;2.60;;;;;;;24.04;73.34;98923.38;5139206;28;20062;-61
2023/05/24 11:21:50;;;;;;;8.82;3.08;;;;;;;24.04;74.22;98929.75;5139061;28;20088;-55
2023/05/24 11:24:17;;;;;;;6.70;3.67;;;;;;;23.90;74.99;98924.75;5139170;28;20062;-57
2023/05/24 11:26:44;;;;;;;7.82;2.90;;;;;;;24.03;74.84;98927.44;5138925;28;20358;-60
2023/05/24 11:29:16;;;;;;;5.75;2.85;;;;;;;23.93;73.83;98930.19;5138940;28;20090;-62